Time;durP1;ratioP1;P1;durP2;ratioP2;P2;SDS_P1;SDS_P2;PMS_P1;PMS_P2;Temp;Humidity;BMP_temperature;BMP_pressure;BME280_temperature;BME280_humidity;BME280_pressure;Samples;Min_cycle;Max_cycle;Signal;HPM_P1;HPM_P2
2023/05/10 00:01:18;;;;;;;14.77;2.17;;;;;;;12.96;90.13;100757.81;5028594;28;20052;-61
2023/05/10 00:03:46;;;;;;;13.73;2.20;;;;;;;13.26;89.05;100754.06;5019368;28;20069;-61
2023/05/10 00:06:13;;;;;;;12.98;2.00;;;;;;;13.14;89.33;100753.94;5027433;28;20049;-61
2023/05/10 00:08:41;;;;;;;9.48;1.85;;;;;;;13.04;87.25;100757.06;5026931;28;20065;-61
2023/05/10 00:11:08;;;;;;;9.23;1.98;;;;;;;12.91;89.48;100769.06;5023546;28;20053;-61
2023/05/10 00:13:35;;;;;;;17.67;2.47;;;;;;;12.98;87.73;100759.13;5028249;28;20056;-61
2023/05/10 00:16:02;;;;;;;13.85;2.72;;;;;;;12.98;87.79;100759.13;5007790;28;20057;-61
2023/05/10 00:18:30;;;;;;;12.40;1.80;;;;;;;12.73;87.09;100762.75;5028222;28;20460;-61
2023/05/10 00:20:57;;;;;;;12.82;2.20;;;;;;;12.87;88.63;100765.31;5028696;28;20053;-62
2023/05/10 00:23:25;;;;;;;10.85;2.20;;;;;;;12.89;87.46;100766.63;5025550;28;20054;-61
2023/05/10 00:25:53;;;;;;;8.50;1.80;;;;;;;12.60;86.66;100758.22;5009828;28;20118;-61
2023/05/10 00:28:20;;;;;;;6.22;1.67;;;;;;;12.80;86.68;100760.28;5028751;28;20041;-62
2023/05/10 00:30:47;;;;;;;14.55;2.03;;;;;;;12.55;85.29;100750.09;5028605;28;20057;-61
2023/05/10 00:33:14;;;;;;;10.88;2.15;;;;;;;12.38;86.08;100755.59;5023755;28;20053;-61
2023/05/10 00:35:42;;;;;;;10.98;1.67;;;;;;;12.39;86.33;100755.28;5030972;28;20053;-62
2023/05/10 00:38:09;;;;;;;14.70;2.30;;;;;;;12.52;85.81;100756.25;5027006;28;20053;-62
2023/05/10 00:40:37;;;;;;;12.48;1.90;;;;;;;12.48;86.13;100760.81;5028550;28;20041;-62
2023/05/10 00:43:09;;;;;;;8.35;1.75;;;;;;;12.53;84.89;100763.41;4994374;28;20065;-62
2023/05/10 00:45:37;;;;;;;8.48;1.83;;;;;;;12.70;83.12;100770.88;5011831;28;20049;-61
2023/05/10 00:48:05;;;;;;;10.35;1.85;;;;;;;12.48;85.33;100764.38;4976907;28;20452;-61
2023/05/10 00:50:33;;;;;;;14.25;2.40;;;;;;;12.55;84.31;100763.91;5017686;28;20049;-61
2023/05/10 00:53:00;;;;;;;6.55;1.52;;;;;;;12.42;86.63;100762.91;5012432;28;20042;-61
2023/05/10 00:55:28;;;;;;;7.47;1.30;;;;;;;12.39;84.30;100771.03;5015545;28;20049;-62
2023/05/10 00:57:55;;;;;;;9.90;1.80;;;;;;;12.22;85.92;100768.28;5001245;28;20520;-62
2023/05/10 01:00:22;;;;;;;6.38;1.48;;;;;;;12.17;84.56;100777.50;5019868;28;20046;-62
2023/05/10 01:02:50;;;;;;;6.20;1.10;;;;;;;12.08;84.76;100778.63;5024239;28;20072;-62
2023/05/10 01:05:18;;;;;;;10.45;1.50;;;;;;;12.08;85.33;100782.19;5015428;28;20053;-62
2023/05/10 01:07:45;;;;;;;13.43;1.98;;;;;;;12.06;85.57;100780.91;4999820;28;20062;-62
2023/05/10 01:10:12;;;;;;;6.97;1.63;;;;;;;11.93;85.37;100785.41;4998878;28;20049;-63
2023/05/10 01:12:44;;;;;;;11.20;1.20;;;;;;;12.06;84.83;100786.44;4993791;28;20061;-63
2023/05/10 01:15:12;;;;;;;11.57;1.30;;;;;;;12.06;85.29;100780.91;5001174;28;20577;-62
2023/05/10 01:17:40;;;;;;;8.75;2.00;;;;;;;12.19;86.21;100782.69;5006213;28;20081;-62
2023/05/10 01:20:09;;;;;;;8.18;1.20;;;;;;;12.14;85.22;100778.16;5025239;28;20053;-61
2023/05/10 01:22:43;;;;;;;4.90;1.00;;;;;;;12.20;84.75;100778.81;5005165;28;20038;-62
2023/05/10 01:25:35;;;;;;;7.53;1.35;;;;;;;12.35;85.59;100770.88;4998811;28;20051;-61
2023/05/10 01:28:22;;;;;;;6.28;1.20;;;;;;;12.42;84.15;100773.97;5002300;28;20061;-61
2023/05/10 01:31:02;;;;;;;9.98;2.00;;;;;;;12.34;82.70;100791.34;4995856;28;20064;-62
2023/05/10 01:33:39;;;;;;;6.25;1.15;;;;;;;12.40;82.29;100784.53;5004042;28;20049;-61
2023/05/10 01:36:33;;;;;;;6.97;1.40;;;;;;;12.54;81.41;100784.38;4997106;28;20057;-62
2023/05/10 01:39:20;;;;;;;8.55;1.52;;;;;;;12.87;82.47;100788.25;5009636;28;20049;-62
2023/05/10 01:42:05;;;;;;;5.90;1.35;;;;;;;12.75;81.30;100788.09;5007332;28;20641;-62
2023/05/10 01:44:43;;;;;;;7.93;1.45;;;;;;;12.58;81.30;100784.53;5025481;28;20053;-61
2023/05/10 01:47:14;;;;;;;5.63;1.20;;;;;;;12.86;81.86;100785.81;5010111;28;20076;-61
2023/05/10 01:49:49;;;;;;;5.95;1.35;;;;;;;12.81;82.54;100778.53;5006285;28;20054;-62
2023/05/10 01:52:21;;;;;;;7.75;1.38;;;;;;;12.83;81.81;100778.19;5003459;28;20038;-62
2023/05/10 01:54:55;;;;;;;8.75;1.20;;;;;;;12.72;82.42;100782.41;5009635;28;20050;-62
2023/05/10 01:57:26;;;;;;;8.57;1.60;;;;;;;12.41;83.04;100785.34;4996128;28;20049;-62
2023/05/10 01:59:54;;;;;;;9.00;1.38;;;;;;;12.57;82.21;100788.44;4989499;28;20052;-62
2023/05/10 02:02:23;;;;;;;6.63;1.10;;;;;;;12.43;83.40;100789.41;4993470;28;20045;-60
2023/05/10 02:04:51;;;;;;;6.50;1.13;;;;;;;12.41;82.73;100794.44;5007535;28;20052;-61
2023/05/10 02:07:19;;;;;;;7.47;1.65;;;;;;;12.63;84.38;100798.19;5004260;28;20062;-61
2023/05/10 02:09:47;;;;;;;5.57;1.23;;;;;;;12.59;83.00;100798.00;5007911;28;20060;-61
2023/05/10 02:12:16;;;;;;;11.20;1.20;;;;;;;12.48;81.81;100803.03;5007667;28;20505;-61
2023/05/10 02:14:44;;;;;;;6.25;1.10;;;;;;;12.31;81.83;100808.56;5007944;28;20051;-61
2023/05/10 02:17:11;;;;;;;2.78;0.80;;;;;;;12.37;83.21;100803.69;5008363;28;20508;-62
2023/05/10 02:19:40;;;;;;;7.22;1.10;;;;;;;12.10;82.12;100796.50;4986917;28;20065;-63
2023/05/10 02:22:08;;;;;;;3.80;0.95;;;;;;;12.13;82.85;100786.75;4968101;28;20410;-61
2023/05/10 02:24:36;;;;;;;6.10;0.98;;;;;;;12.32;83.56;100799.16;5006319;28;20066;-62
2023/05/10 02:27:04;;;;;;;5.80;1.58;;;;;;;12.24;82.83;100799.09;5005732;28;20068;-61
2023/05/10 02:29:32;;;;;;;9.63;1.65;;;;;;;12.25;82.51;100796.06;5005262;28;20689;-62
2023/05/10 02:32:00;;;;;;;4.38;1.00;;;;;;;12.36;82.70;100799.31;5006497;28;20571;-62
2023/05/10 02:34:28;;;;;;;5.32;1.38;;;;;;;12.41;81.51;100796.41;5007455;28;20426;-62
2023/05/10 02:36:56;;;;;;;5.13;0.85;;;;;;;12.71;81.64;100789.09;4999944;28;20053;-62
2023/05/10 02:39:23;;;;;;;4.13;1.00;;;;;;;12.65;80.86;100795.91;4994981;28;20417;-61
2023/05/10 02:41:52;;;;;;;4.55;0.98;;;;;;;12.81;83.94;100792.34;5006923;28;20069;-62
2023/05/10 02:44:20;;;;;;;4.60;0.93;;;;;;;12.70;80.41;100796.56;4985807;28;20049;-61
2023/05/10 02:46:47;;;;;;;5.75;1.10;;;;;;;12.58;80.86;100790.88;5013955;28;20054;-61
2023/05/10 02:49:15;;;;;;;3.30;0.93;;;;;;;12.42;80.85;100798.84;5008025;28;20494;-61
2023/05/10 02:51:50;;;;;;;5.20;1.30;;;;;;;12.62;81.86;100794.63;5001049;28;20133;-62
2023/05/10 02:54:24;;;;;;;6.57;0.80;;;;;;;12.68;81.02;100786.97;4981704;28;20079;-61
2023/05/10 02:56:56;;;;;;;8.85;1.67;;;;;;;12.87;82.38;100781.91;5004255;28;20057;-62
2023/05/10 02:59:24;;;;;;;9.93;1.23;;;;;;;12.73;80.49;100773.78;4986710;28;20046;-62
2023/05/10 03:01:51;;;;;;;4.20;0.75;;;;;;;13.01;80.90;100760.41;4989626;28;20054;-61
2023/05/10 03:04:19;;;;;;;7.43;1.05;;;;;;;13.02;78.71;100775.91;5006449;28;20141;-61
2023/05/10 03:06:46;;;;;;;7.75;1.52;;;;;;;12.85;80.18;100779.47;5026828;28;20049;-62
2023/05/10 03:09:15;;;;;;;11.02;1.33;;;;;;;12.74;79.79;100771.84;5019368;28;20057;-62
2023/05/10 03:11:50;;;;;;;5.72;1.55;;;;;;;12.75;80.27;100771.53;5026977;28;20050;-63
2023/05/10 03:14:37;;;;;;;6.50;1.00;;;;;;;12.66;80.86;100767.94;5029230;28;20037;-62
2023/05/10 03:17:43;;;;;;;6.88;1.40;;;;;;;12.40;81.45;100776.25;5026484;28;20045;-62
2023/05/10 03:20:14;;;;;;;7.72;0.95;;;;;;;12.47;82.05;100781.28;5023485;28;20060;-62
2023/05/10 03:22:47;;;;;;;6.43;0.95;;;;;;;12.48;81.60;100782.91;4990738;28;20050;-62
2023/05/10 03:25:15;;;;;;;4.45;0.85;;;;;;;12.51;81.66;100779.50;5018661;28;20079;-63
2023/05/10 03:27:43;;;;;;;7.07;1.13;;;;;;;12.41;81.93;100777.84;5001244;28;20500;-62
2023/05/10 03:30:12;;;;;;;5.43;0.95;;;;;;;12.60;81.03;100779.50;5014084;28;20053;-61
2023/05/10 03:32:41;;;;;;;5.82;1.02;;;;;;;12.54;81.86;100778.84;5026008;28;20045;-63
2023/05/10 03:35:09;;;;;;;6.95;1.13;;;;;;;12.54;82.65;100776.06;5016965;28;20057;-65
2023/05/10 03:37:37;;;;;;;5.57;1.05;;;;;;;12.49;81.72;100770.72;5026592;28;20058;-64
2023/05/10 03:40:05;;;;;;;10.88;1.13;;;;;;;12.60;81.94;100783.06;5027004;28;20496;-63
2023/05/10 03:42:35;;;;;;;;;;;;;;;12.53;82.88;100779.16;5022291;28;20046;-62
2023/05/10 03:45:03;;;;;;;4.90;0.90;;;;;;;12.65;82.47;100780.16;5026622;28;20013;-62
2023/05/10 03:47:30;;;;;;;4.00;0.85;;;;;;;12.48;83.74;100773.81;5027217;28;20079;-62
2023/05/10 03:49:58;;;;;;;6.28;1.23;;;;;;;12.55;83.28;100776.91;5012471;28;20496;-62
2023/05/10 03:52:26;;;;;;;8.23;1.10;;;;;;;12.61;83.61;100787.47;4991280;28;20053;-63
2023/05/10 03:54:54;;;;;;;5.53;0.85;;;;;;;12.64;83.38;100778.50;5021218;28;20076;-62
2023/05/10 03:57:23;;;;;;;6.37;1.30;;;;;;;12.45;84.88;100781.59;4991662;28;20054;-61
2023/05/10 03:59:50;;;;;;;3.33;0.90;;;;;;;12.52;86.00;100780.31;4999390;28;20064;-60
2023/05/10 04:02:17;;;;;;;6.88;1.08;;;;;;;12.51;86.45;100776.72;5010529;28;20045;-61
2023/05/10 04:04:45;;;;;;;7.30;0.95;;;;;;;12.37;86.41;100776.06;5015887;28;20448;-62
2023/05/10 04:07:12;;;;;;;4.82;0.90;;;;;;;12.27;87.52;100781.91;5019346;28;20064;-61
2023/05/10 04:09:40;;;;;;;3.08;0.90;;;;;;;12.51;86.82;100767.63;5021720;28;20402;-61
2023/05/10 04:12:07;;;;;;;4.72;0.85;;;;;;;12.57;86.54;100764.38;5020337;28;20050;-61
2023/05/10 04:14:37;;;;;;;6.28;0.98;;;;;;;12.69;86.92;100761.78;5015509;28;20053;-61
2023/05/10 04:17:05;;;;;;;5.80;0.90;;;;;;;12.55;86.76;100763.91;5002371;28;20045;-61
2023/05/10 04:19:32;;;;;;;7.35;0.90;;;;;;;12.63;86.94;100770.53;5019294;28;20125;-62
2023/05/10 04:22:00;;;;;;;4.13;1.23;;;;;;;12.65;86.68;100769.09;5028610;28;20054;-62
2023/05/10 04:24:27;;;;;;;4.45;0.90;;;;;;;12.89;85.56;100768.56;5006460;28;20042;-62
2023/05/10 04:26:55;;;;;;;3.92;0.82;;;;;;;12.85;85.70;100768.41;5022075;28;20050;-62
2023/05/10 04:29:24;;;;;;;5.22;1.00;;;;;;;12.48;86.93;100765.53;4988181;28;20046;-62
2023/05/10 04:31:51;;;;;;;3.50;1.05;;;;;;;12.34;88.35;100766.47;5028814;28;20464;-62
2023/05/10 04:34:20;;;;;;;4.75;1.17;;;;;;;12.55;89.34;100768.59;5010906;28;20523;-62
2023/05/10 04:36:47;;;;;;;5.50;1.10;;;;;;;12.75;88.84;100766.00;5026561;28;20046;-62
2023/05/10 04:39:14;;;;;;;3.53;0.88;;;;;;;12.84;87.96;100769.56;5031290;28;20505;-62
2023/05/10 04:41:42;;;;;;;3.90;1.05;;;;;;;12.66;88.42;100767.16;5029565;28;20049;-62
2023/05/10 04:44:09;;;;;;;5.55;1.00;;;;;;;12.71;89.06;100759.47;5022947;28;20342;-64
2023/05/10 04:46:36;;;;;;;3.47;1.02;;;;;;;12.78;89.68;100753.47;5032808;28;20052;-62
2023/05/10 04:49:04;;;;;;;6.00;1.10;;;;;;;12.58;89.31;100760.47;5009235;28;20531;-62
2023/05/10 04:51:32;;;;;;;4.15;0.98;;;;;;;12.57;90.32;100753.31;5028131;28;20057;-63
2023/05/10 04:53:59;;;;;;;3.85;1.10;;;;;;;12.59;90.05;100753.81;5030592;28;20050;-62
2023/05/10 04:56:33;;;;;;;6.75;0.93;;;;;;;12.39;90.67;100749.75;5024609;28;20041;-62
2023/05/10 04:59:00;;;;;;;6.47;1.08;;;;;;;12.41;91.21;100758.50;5009636;28;20690;-62
2023/05/10 05:01:27;;;;;;;4.70;1.05;;;;;;;12.50;91.85;100749.44;5031594;28;20053;-63
2023/05/10 05:03:56;;;;;;;6.70;1.20;;;;;;;12.37;91.98;100748.44;5025949;28;20041;-61
2023/05/10 05:06:24;;;;;;;5.00;1.23;;;;;;;12.50;93.02;100744.69;5026320;28;20573;-63
2023/05/10 05:08:55;;;;;;;5.38;1.20;;;;;;;12.31;93.48;100758.03;5007402;28;20445;-63
2023/05/10 05:11:22;;;;;;;5.25;1.02;;;;;;;12.48;94.12;100752.53;5007310;28;20064;-62
2023/05/10 05:13:49;;;;;;;8.63;1.58;;;;;;;12.63;93.05;100763.06;5006532;28;20062;-62
2023/05/10 05:16:17;;;;;;;5.22;1.40;;;;;;;12.59;92.46;100764.84;5008792;28;20065;-62
2023/05/10 05:18:44;;;;;;;4.45;1.10;;;;;;;12.38;93.66;100756.41;5015478;28;20065;-62
2023/05/10 05:21:19;;;;;;;5.97;1.40;;;;;;;12.48;94.63;100760.81;5002814;28;20061;-62
2023/05/10 05:23:46;;;;;;;5.18;1.60;;;;;;;12.64;93.78;100761.13;5007104;28;20038;-62
2023/05/10 05:26:14;;;;;;;7.22;1.45;;;;;;;12.65;93.76;100759.97;5001252;28;20057;-61
2023/05/10 05:28:42;;;;;;;4.60;1.25;;;;;;;12.57;93.55;100764.38;5007355;28;20058;-62
2023/05/10 05:31:09;;;;;;;7.20;1.60;;;;;;;12.70;94.38;100768.09;5005942;28;20151;-62
2023/05/10 05:33:37;;;;;;;4.45;1.48;;;;;;;12.98;94.43;100778.50;5012964;28;20057;-61
2023/05/10 05:36:05;;;;;;;4.05;1.10;;;;;;;13.18;93.85;100771.50;5018075;28;20062;-61
2023/05/10 05:38:32;;;;;;;7.72;1.63;;;;;;;13.00;91.98;100769.88;5009741;28;20413;-62
2023/05/10 05:41:00;;;;;;;5.65;1.55;;;;;;;13.09;92.54;100776.22;5010502;28;20050;-62
2023/05/10 05:43:27;;;;;;;4.63;1.80;;;;;;;12.98;92.01;100775.72;5007173;28;20053;-62
2023/05/10 05:45:57;;;;;;;8.90;1.40;;;;;;;12.81;93.05;100769.41;5004019;28;20081;-62
2023/05/10 05:48:25;;;;;;;8.90;1.73;;;;;;;12.70;93.89;100784.69;5007537;28;20054;-62
2023/05/10 05:50:56;;;;;;;8.10;1.90;;;;;;;13.03;94.69;100778.34;5009266;28;20077;-63
2023/05/10 05:53:23;;;;;;;8.43;1.88;;;;;;;13.24;94.28;100786.75;5002952;28;20045;-62
2023/05/10 05:55:54;;;;;;;11.25;1.90;;;;;;;13.15;93.63;100784.00;5009973;28;20189;-61
2023/05/10 05:58:22;;;;;;;8.98;1.90;;;;;;;13.35;93.67;100788.03;5004480;28;20060;-62
2023/05/10 06:00:50;;;;;;;10.77;2.00;;;;;;;13.16;94.08;100780.09;5007774;28;20046;-62
2023/05/10 06:03:17;;;;;;;6.70;1.90;;;;;;;13.18;93.41;100782.56;5005617;28;20065;-62
2023/05/10 06:05:45;;;;;;;6.68;1.92;;;;;;;13.11;94.88;100787.78;5022853;28;20054;-62
2023/05/10 06:08:12;;;;;;;10.35;2.13;;;;;;;12.89;95.13;100799.81;5015629;28;20045;-63
2023/05/10 06:10:40;;;;;;;11.35;2.78;;;;;;;12.97;97.33;100803.72;5021900;28;20061;-62
2023/05/10 06:13:07;;;;;;;8.65;2.20;;;;;;;12.61;97.80;100809.56;5016610;28;20057;-61
2023/05/10 06:15:34;;;;;;;10.65;2.42;;;;;;;12.63;100.00;100798.19;5000744;28;20053;-62
2023/05/10 06:18:02;;;;;;;8.68;2.47;;;;;;;12.80;100.00;100792.63;5017555;28;20042;-62
2023/05/10 06:20:31;;;;;;;10.82;2.50;;;;;;;12.84;100.00;100797.22;5016453;28;20044;-62
2023/05/10 06:22:58;;;;;;;8.47;2.20;;;;;;;12.80;100.00;100801.75;5022101;28;20077;-62
2023/05/10 06:25:26;;;;;;;9.10;2.33;;;;;;;12.71;99.86;100789.09;5011517;28;20038;-62
2023/05/10 06:27:57;;;;;;;8.80;2.70;;;;;;;12.67;100.00;100802.75;5022377;28;20045;-61
2023/05/10 06:30:28;;;;;;;10.88;2.58;;;;;;;12.68;100.00;100798.84;5020362;28;20064;-62
2023/05/10 06:32:55;;;;;;;8.13;2.20;;;;;;;12.85;100.00;100803.56;5023702;28;20045;-62
2023/05/10 06:35:23;;;;;;;9.95;2.45;;;;;;;13.12;100.00;100804.03;5018128;28;20060;-63
2023/05/10 06:37:51;;;;;;;9.30;2.38;;;;;;;13.22;100.00;100806.44;5019191;28;20061;-62
2023/05/10 06:40:18;;;;;;;7.32;2.25;;;;;;;13.24;99.49;100808.88;5022341;28;20473;-62
2023/05/10 06:42:47;;;;;;;11.07;2.55;;;;;;;13.13;99.13;100816.72;5012763;28;20073;-62
2023/05/10 06:45:15;;;;;;;13.65;2.42;;;;;;;12.84;99.10;100819.31;5020642;28;20041;-63
2023/05/10 06:47:43;;;;;;;11.10;2.97;;;;;;;12.88;100.00;100812.00;5026107;28;20057;-61
2023/05/10 06:50:13;;;;;;;8.70;2.60;;;;;;;12.84;100.00;100811.03;5005359;28;20533;-63
2023/05/10 06:52:41;;;;;;;9.02;2.58;;;;;;;13.14;100.00;100818.34;5019154;28;20054;-62
2023/05/10 06:55:08;;;;;;;10.95;2.17;;;;;;;13.05;99.37;100813.97;5017931;28;20041;-62
2023/05/10 06:57:36;;;;;;;9.95;2.50;;;;;;;13.24;100.00;100819.94;5013440;28;20057;-62
2023/05/10 07:00:04;;;;;;;6.95;2.13;;;;;;;13.29;99.99;100819.78;5016981;28;20049;-62
2023/05/10 07:02:32;;;;;;;6.68;2.00;;;;;;;13.55;98.95;100818.56;5014180;28;20053;-62
2023/05/10 07:04:59;;;;;;;13.20;2.20;;;;;;;14.02;98.24;100822.09;4995192;28;20058;-60
2023/05/10 07:07:42;;;;;;;10.10;1.88;;;;;;;13.56;94.96;100828.47;5013770;28;20065;-62
2023/05/10 07:10:09;;;;;;;8.32;2.05;;;;;;;13.44;97.01;100824.81;5001887;28;20050;-62
2023/05/10 07:12:37;;;;;;;7.93;2.17;;;;;;;13.23;96.01;100827.44;5002888;28;20069;-62
2023/05/10 07:15:06;;;;;;;7.72;2.30;;;;;;;13.27;96.80;100835.88;5009831;28;20041;-61
2023/05/10 07:17:33;;;;;;;7.00;1.95;;;;;;;13.11;97.29;100830.06;5017230;28;20532;-62
2023/05/10 07:20:01;;;;;;;7.55;2.40;;;;;;;13.35;97.32;100833.09;4995378;28;20049;-61
2023/05/10 07:22:28;;;;;;;5.43;2.10;;;;;;;13.11;98.02;100838.34;5009620;28;20053;-62
2023/05/10 07:24:56;;;;;;;6.43;2.30;;;;;;;12.99;99.09;100842.91;4998306;28;20034;-61
2023/05/10 07:27:23;;;;;;;8.75;2.65;;;;;;;13.02;100.00;100837.53;5007004;28;20053;-61
2023/05/10 07:29:51;;;;;;;8.10;2.28;;;;;;;12.85;100.00;100834.75;4997758;28;20054;-61
2023/05/10 07:32:18;;;;;;;8.38;2.30;;;;;;;12.99;100.00;100829.88;5013459;28;20061;-61
2023/05/10 07:34:46;;;;;;;5.93;1.60;;;;;;;13.10;100.00;100827.63;5013588;28;20049;-62
2023/05/10 07:37:14;;;;;;;6.22;1.73;;;;;;;13.19;100.00;100828.44;5009691;28;20053;-61
2023/05/10 07:39:41;;;;;;;6.15;1.90;;;;;;;12.91;100.00;100824.34;5016545;28;20065;-62
2023/05/10 07:42:09;;;;;;;4.90;1.60;;;;;;;12.97;100.00;100834.91;5010565;28;20054;-63
2023/05/10 07:44:36;;;;;;;9.30;2.00;;;;;;;13.11;100.00;100835.59;5011339;28;20049;-61
2023/05/10 07:47:03;;;;;;;6.40;1.88;;;;;;;13.06;100.00;100841.28;5009602;28;20089;-64
2023/05/10 07:49:31;;;;;;;4.63;1.73;;;;;;;12.89;100.00;100841.28;5018095;28;20058;-61
2023/05/10 07:51:58;;;;;;;10.50;2.88;;;;;;;13.15;100.00;100839.31;5013845;28;20050;-62
2023/05/10 07:54:25;;;;;;;7.03;2.08;;;;;;;13.10;100.00;100841.44;5015231;28;20060;-62
2023/05/10 07:56:53;;;;;;;6.03;2.28;;;;;;;13.24;100.00;100848.44;5010331;28;20034;-62
2023/05/10 07:59:20;;;;;;;8.82;2.55;;;;;;;13.28;100.00;100843.06;5011150;28;20042;-63
2023/05/10 08:01:48;;;;;;;8.73;2.75;;;;;;;13.26;100.00;100845.34;4994941;28;20057;-62
2023/05/10 08:04:15;;;;;;;6.07;2.60;;;;;;;13.20;100.00;100852.97;5005646;28;20054;-62
2023/05/10 08:06:42;;;;;;;8.55;3.47;;;;;;;13.17;100.00;100848.13;4971112;28;20062;-61
2023/05/10 08:09:10;;;;;;;8.18;3.38;;;;;;;13.18;100.00;100848.94;5018684;28;20041;-62
2023/05/10 08:11:38;;;;;;;9.57;3.30;;;;;;;13.27;100.00;100852.47;5013439;28;20046;-62
2023/05/10 08:14:05;;;;;;;8.05;3.20;;;;;;;13.04;100.00;100854.63;5015859;28;20046;-63
2023/05/10 08:16:32;;;;;;;8.80;3.42;;;;;;;12.99;100.00;100851.19;5018822;28;20056;-62
2023/05/10 08:18:59;;;;;;;7.65;3.05;;;;;;;13.10;100.00;100849.75;5019185;28;20061;-62
2023/05/10 08:21:27;;;;;;;10.35;3.70;;;;;;;12.82;100.00;100853.94;4994633;28;20080;-62
2023/05/10 08:23:54;;;;;;;8.63;2.80;;;;;;;12.76;100.00;100869.88;5009220;28;20057;-62
2023/05/10 08:26:21;;;;;;;7.05;3.20;;;;;;;12.71;100.00;100870.03;5014177;28;20042;-63
2023/05/10 08:28:49;;;;;;;7.50;2.97;;;;;;;12.79;100.00;100851.84;5022796;28;20053;-62
2023/05/10 08:31:16;;;;;;;7.63;2.65;;;;;;;12.97;100.00;100862.56;5015352;28;20041;-63
2023/05/10 08:33:44;;;;;;;7.90;2.75;;;;;;;13.25;100.00;100866.66;4994210;28;20062;-63
2023/05/10 08:36:13;;;;;;;9.75;2.45;;;;;;;13.48;100.00;100875.56;5013177;28;20049;-62
2023/05/10 08:38:41;;;;;;;7.00;2.60;;;;;;;13.33;97.97;100870.56;5007968;28;20169;-62
2023/05/10 08:41:09;;;;;;;8.18;2.85;;;;;;;13.30;99.68;100869.22;4999160;28;20409;-62
2023/05/10 08:43:37;;;;;;;9.65;2.92;;;;;;;13.38;100.00;100884.22;4994543;28;20064;-64
2023/05/10 08:46:05;;;;;;;8.00;2.88;;;;;;;13.30;100.00;100880.31;5022898;28;20064;-62
2023/05/10 08:48:34;;;;;;;9.23;2.70;;;;;;;13.35;99.38;100880.13;5005989;28;20528;-62
2023/05/10 08:51:03;;;;;;;11.15;3.33;;;;;;;13.23;98.77;100884.72;5020339;28;20048;-63
2023/05/10 08:53:31;;;;;;;8.13;3.05;;;;;;;13.09;100.00;100900.66;4995049;28;20053;-63
2023/05/10 08:55:59;;;;;;;14.65;4.40;;;;;;;13.09;100.00;100895.16;5010627;28;20041;-62
2023/05/10 08:58:26;;;;;;;12.52;3.55;;;;;;;13.28;100.00;100898.38;5026045;28;20057;-62
2023/05/10 09:00:53;;;;;;;13.35;4.35;;;;;;;13.11;100.00;100909.47;5012769;28;20050;-63
2023/05/10 09:03:21;;;;;;;14.82;4.18;;;;;;;13.25;100.00;100915.66;4981591;28;20050;-62
2023/05/10 09:05:49;;;;;;;18.30;4.47;;;;;;;13.26;100.00;100907.00;5014024;28;20061;-63
2023/05/10 09:08:17;;;;;;;16.98;4.78;;;;;;;13.49;99.06;100911.19;4994959;28;20061;-63
2023/05/10 09:10:47;;;;;;;20.17;4.53;;;;;;;13.04;97.22;100911.91;5023114;28;20073;-63
2023/05/10 09:13:17;;;;;;;16.80;4.60;;;;;;;13.18;98.68;100920.84;5021998;28;20420;-62
2023/05/10 09:15:45;;;;;;;21.92;4.90;;;;;;;13.27;97.34;100913.34;5020123;28;20382;-63
2023/05/10 09:18:12;;;;;;;22.13;5.18;;;;;;;13.49;96.22;100930.56;5013148;28;20082;-63
2023/05/10 09:20:40;;;;;;;20.38;5.07;;;;;;;13.84;95.09;100919.44;5017639;28;20057;-62
2023/05/10 09:23:08;;;;;;;19.35;5.25;;;;;;;13.74;94.04;100930.88;5024160;28;20045;-62
2023/05/10 09:25:36;;;;;;;22.98;6.25;;;;;;;13.73;94.76;100935.59;5026320;28;20041;-62
2023/05/10 09:28:08;;;;;;;21.25;5.80;;;;;;;13.90;94.86;100926.41;5018066;28;20049;-62
2023/05/10 09:30:37;;;;;;;23.13;5.43;;;;;;;14.20;94.71;100928.94;5012146;28;20453;-62
2023/05/10 09:33:04;;;;;;;24.85;6.35;;;;;;;13.92;93.57;100935.22;5019255;28;20049;-64
2023/05/10 09:35:33;;;;;;;24.27;6.43;;;;;;;13.69;93.03;100942.09;5012104;28;20046;-63
2023/05/10 09:38:04;;;;;;;26.27;6.15;;;;;;;13.49;94.61;100946.38;5015760;28;20053;-62
2023/05/10 09:40:31;;;;;;;24.90;5.47;;;;;;;13.55;95.31;100948.66;4996838;28;20641;-61
2023/05/10 09:43:08;;;;;;;26.90;6.50;;;;;;;13.80;94.64;100944.22;5019857;28;20045;-62
2023/05/10 09:45:36;;;;;;;23.83;5.40;;;;;;;13.80;93.50;100952.50;5009251;28;20485;-63
2023/05/10 09:48:06;;;;;;;22.13;5.43;;;;;;;13.91;93.58;100969.59;5010288;28;20062;-62
2023/05/10 09:50:34;;;;;;;20.95;5.22;;;;;;;13.75;89.63;100960.19;5006212;28;20069;-62
2023/05/10 09:53:03;;;;;;;23.30;5.65;;;;;;;13.74;92.52;100955.78;5013403;28;20057;-63
2023/05/10 09:55:45;;;;;;;28.98;5.53;;;;;;;13.55;91.08;100970.78;4993292;28;20054;-63
2023/05/10 09:58:13;;;;;;;26.85;6.18;;;;;;;13.35;92.32;100968.66;5008152;28;20057;-63
2023/05/10 10:00:43;;;;;;;26.75;6.13;;;;;;;13.32;92.42;100972.09;5013804;28;20691;-62
2023/05/10 10:03:18;;;;;;;19.67;4.70;;;;;;;13.45;91.08;100973.91;4992793;28;20058;-62
2023/05/10 10:05:47;;;;;;;29.17;6.32;;;;;;;13.68;91.64;100969.00;5010967;28;20037;-62
2023/05/10 10:08:16;;;;;;;22.85;5.38;;;;;;;13.64;91.20;100972.72;5010181;28;20153;-62
2023/05/10 10:10:44;;;;;;;26.85;6.40;;;;;;;14.06;91.95;100964.34;5012846;28;20052;-65
2023/05/10 10:13:14;;;;;;;23.95;7.55;;;;;;;14.29;90.68;100963.00;4994061;28;20050;-63
2023/05/10 10:15:43;;;;;;;24.40;6.13;;;;;;;14.27;88.35;100968.03;5010026;28;20042;-62
2023/05/10 10:18:14;;;;;;;28.25;6.57;;;;;;;14.22;87.54;100959.06;5009028;28;20050;-64
2023/05/10 10:20:42;;;;;;;23.00;5.45;;;;;;;14.16;86.09;100965.91;5024621;28;20046;-63
2023/05/10 10:23:09;;;;;;;33.33;6.55;;;;;;;14.29;85.12;100973.25;5011242;28;20076;-62
2023/05/10 10:25:37;;;;;;;23.90;6.55;;;;;;;14.07;85.80;100963.19;5010834;28;20537;-66
2023/05/10 10:28:30;;;;;;;26.98;6.00;;;;;;;14.10;85.67;100970.03;5022515;28;20062;-62
2023/05/10 10:31:02;;;;;;;45.03;14.73;;;;;;;14.23;86.14;100967.03;5016122;28;20061;-62
2023/05/10 10:33:56;;;;;;;29.02;5.85;;;;;;;14.14;86.41;100971.00;5011854;28;20053;-65
2023/05/10 10:36:26;;;;;;;25.50;6.35;;;;;;;14.35;85.46;100967.19;4993566;28;20046;-63
2023/05/10 10:38:59;;;;;;;28.05;6.63;;;;;;;14.43;84.39;100969.13;5023072;28;20061;-62
2023/05/10 10:41:33;;;;;;;23.90;6.95;;;;;;;14.62;84.18;100958.44;5002871;28;20042;-63
2023/05/10 10:44:22;;;;;;;26.98;6.55;;;;;;;14.49;81.76;100961.41;5018729;28;20045;-63
2023/05/10 10:47:11;;;;;;;23.73;6.30;;;;;;;14.53;81.82;100968.75;5011958;28;20045;-62
2023/05/10 10:49:42;;;;;;;24.02;5.95;;;;;;;14.39;81.43;100962.63;5010993;28;20062;-62
2023/05/10 10:52:18;;;;;;;24.98;6.55;;;;;;;14.44;82.21;100956.06;5008874;28;20609;-63
2023/05/10 10:55:12;;;;;;;23.77;6.15;;;;;;;14.40;81.11;100963.44;5007003;28;20102;-63
2023/05/10 10:57:45;;;;;;;28.83;6.95;;;;;;;14.58;81.08;100968.56;4995436;28;20061;-64
2023/05/10 11:00:28;;;;;;;23.13;6.13;;;;;;;14.39;81.18;100972.88;5010033;28;20046;-66
2023/05/10 11:03:02;;;;;;;24.65;6.75;;;;;;;14.29;82.29;100968.53;4997124;28;20065;-64
2023/05/10 11:05:47;;;;;;;18.15;6.20;;;;;;;14.37;81.96;100970.44;5013311;28;20088;-62
2023/05/10 11:08:41;;;;;;;32.40;14.07;;;;;;;14.65;82.48;100965.25;5013366;28;20057;-64
2023/05/10 11:11:09;;;;;;;22.25;6.40;;;;;;;14.69;79.71;100966.22;5001399;28;20046;-63
2023/05/10 11:13:41;;;;;;;21.98;6.18;;;;;;;14.70;79.25;100961.50;5013216;28;20057;-64
2023/05/10 11:16:18;;;;;;;22.85;6.38;;;;;;;15.00;79.28;100961.13;5009800;28;20053;-63
2023/05/10 11:19:04;;;;;;;26.10;4.63;;;;;;;15.16;77.27;100958.56;5009896;28;20065;-64
2023/05/10 11:21:34;;;;;;;20.30;5.60;;;;;;;15.29;77.15;100957.50;5018927;28;20051;-64
2023/05/10 11:24:05;;;;;;;20.55;6.10;;;;;;;15.13;76.23;100953.69;5015859;28;20050;-64
2023/05/10 11:26:36;;;;;;;21.52;5.15;;;;;;;15.05;76.63;100952.59;5013322;28;20045;-64
2023/05/10 11:29:04;;;;;;;21.33;5.53;;;;;;;14.89;78.15;100959.88;5004163;28;20060;-64
2023/05/10 11:31:32;;;;;;;22.38;4.90;;;;;;;15.06;78.31;100954.25;5006088;28;20045;-62
2023/05/10 11:34:03;;;;;;;18.38;5.28;;;;;;;15.24;77.48;100949.34;5007036;28;20045;-62